Time;durP1;ratioP1;P1;durP2;ratioP2;P2;SDS_P1;SDS_P2;PMS_P1;PMS_P2;Temp;Humidity;BMP_temperature;BMP_pressure;BME280_temperature;BME280_humidity;BME280_pressure;Samples;Min_cycle;Max_cycle;Signal;HPM_P1;HPM_P2
2023/07/10 00:01:13;;;;;;;17.70;10.65;;;21.40;99.90;;;;;;5070705;28;20404;-58
2023/07/10 00:03:39;;;;;;;20.52;11.98;;;21.50;99.90;;;;;;5077107;28;20028;-58
2023/07/10 00:06:09;;;;;;;17.98;12.50;;;21.30;99.90;;;;;;5074980;28;20123;-58
2023/07/10 00:08:34;;;;;;;17.90;12.43;;;21.30;99.90;;;;;;5066876;28;20056;-58
2023/07/10 00:11:01;;;;;;;18.95;13.55;;;21.30;99.90;;;;;;5072307;28;20113;-59
2023/07/10 00:13:27;;;;;;;17.65;14.70;;;21.20;99.90;;;;;;5067825;28;20032;-59
2023/07/10 00:15:54;;;;;;;17.08;13.88;;;21.30;99.90;;;;;;5072814;28;20660;-59
2023/07/10 00:18:22;;;;;;;18.00;15.32;;;21.20;99.90;;;;;;5068511;28;20047;-58
2023/07/10 00:20:47;;;;;;;19.15;14.07;;;21.20;99.90;;;;;;5072895;28;20412;-58
2023/07/10 00:23:14;;;;;;;19.90;14.35;;;21.20;99.90;;;;;;5067407;28;20040;-59
2023/07/10 00:25:40;;;;;;;20.73;15.13;;;21.10;99.90;;;;;;5068510;28;20029;-59
2023/07/10 00:28:17;;;;;;;23.15;15.65;;;21.20;99.90;;;;;;5070973;28;20058;-57
2023/07/10 00:30:45;;;;;;;19.52;16.30;;;21.20;99.90;;;;;;5056844;28;20116;-58
2023/07/10 00:33:12;;;;;;;20.92;16.60;;;21.10;99.90;;;;;;5069922;28;20029;-58
2023/07/10 00:35:38;;;;;;;26.27;18.40;;;21.30;99.90;;;;;;5073356;28;20571;-58
2023/07/10 00:38:20;;;;;;;23.52;18.67;;;21.20;99.90;;;;;;5069742;28;20040;-58
2023/07/10 00:40:47;;;;;;;27.92;20.52;;;21.20;99.90;;;;;;5073342;28;20107;-58
2023/07/10 00:43:31;;;;;;;27.52;21.15;;;21.20;99.90;;;;;;5074138;28;20508;-58
2023/07/10 00:46:04;;;;;;;25.92;21.77;;;21.30;99.90;;;;;;5072851;28;20032;-58
2023/07/10 00:48:40;;;;;;;25.75;21.95;;;21.00;99.90;;;;;;5076834;28;20058;-58
2023/07/10 00:51:39;;;;;;;29.80;22.45;;;20.80;99.90;;;;;;5071549;28;20543;-58
2023/07/10 00:54:12;;;;;;;29.15;21.52;;;20.60;99.90;;;;;;5071557;28;20032;-57
2023/07/10 00:56:41;;;;;;;32.53;23.35;;;20.70;99.90;;;;;;5076051;28;20035;-58
2023/07/10 00:59:24;;;;;;;28.75;23.48;;;20.70;99.90;;;;;;5081158;28;20036;-56
2023/07/10 01:02:08;;;;;;;29.00;24.10;;;20.70;99.90;;;;;;5075906;28;20035;-58
2023/07/10 01:04:41;;;;;;;31.83;22.13;;;20.70;99.90;;;;;;5073438;28;20029;-58
2023/07/10 01:07:14;;;;;;;24.30;21.35;;;20.60;99.90;;;;;;5070195;28;20056;-57
2023/07/10 01:09:43;;;;;;;31.35;22.75;;;20.90;99.90;;;;;;5065632;28;20082;-58
2023/07/10 01:12:08;;;;;;;28.40;22.63;;;20.80;99.90;;;;;;5066316;28;20496;-58
2023/07/10 01:14:35;;;;;;;29.60;21.70;;;20.80;99.90;;;;;;5066747;28;20035;-58
2023/07/10 01:17:08;;;;;;;31.52;22.00;;;20.80;99.90;;;;;;5068607;28;20544;-58
2023/07/10 01:19:35;;;;;;;24.73;21.10;;;20.60;99.90;;;;;;5067666;28;20039;-58
2023/07/10 01:22:01;;;;;;;26.80;21.33;;;20.70;99.90;;;;;;5072434;28;20131;-59
2023/07/10 01:24:27;;;;;;;30.55;21.33;;;20.70;99.90;;;;;;5075449;28;20032;-59
2023/07/10 01:26:55;;;;;;;29.95;21.98;;;20.80;99.90;;;;;;5077295;28;20093;-59
2023/07/10 01:29:43;;;;;;;37.72;23.08;;;20.80;99.90;;;;;;5070833;28;20056;-59
2023/07/10 01:32:16;;;;;;;30.92;22.08;;;20.70;99.90;;;;;;5067303;28;20036;-58
2023/07/10 01:34:49;;;;;;;28.75;22.08;;;20.40;99.90;;;;;;5074168;28;20112;-58
2023/07/10 01:37:14;;;;;;;29.20;21.17;;;20.50;99.90;;;;;;5068964;28;20094;-58
2023/07/10 01:39:43;;;;;;;24.13;19.17;;;20.50;99.90;;;;;;5060142;28;20275;-58
2023/07/10 01:42:08;;;;;;;26.50;20.77;;;20.60;99.90;;;;;;5064894;28;20097;-58
2023/07/10 01:44:37;;;;;;;31.52;21.80;;;20.40;99.90;;;;;;5067087;28;20056;-59
2023/07/10 01:47:05;;;;;;;25.83;19.20;;;20.30;99.90;;;;;;5076440;28;20668;-57
2023/07/10 01:49:38;;;;;;;26.60;19.75;;;20.30;99.90;;;;;;5074301;28;20500;-58
2023/07/10 01:52:07;;;;;;;30.20;20.17;;;20.30;99.90;;;;;;5071488;28;20522;-58
2023/07/10 01:54:33;;;;;;;28.42;20.65;;;20.10;99.90;;;;;;5065808;28;20039;-58
2023/07/10 01:56:58;;;;;;;27.30;19.45;;;20.30;99.90;;;;;;5060736;28;20040;-58
2023/07/10 01:59:24;;;;;;;27.30;19.70;;;20.40;99.90;;;;;;5071483;28;20056;-58
2023/07/10 02:01:50;;;;;;;30.60;20.48;;;20.40;99.90;;;;;;5075209;28;20074;-58
2023/07/10 02:04:16;;;;;;;30.52;22.95;;;20.30;99.90;;;;;;5068831;28;20504;-59
2023/07/10 02:06:41;;;;;;;31.42;22.98;;;20.70;99.90;;;;;;5063353;28;20043;-58
2023/07/10 02:09:07;;;;;;;29.38;23.13;;;20.80;99.90;;;;;;5066124;28;20388;-58
2023/07/10 02:11:37;;;;;;;28.63;22.45;;;20.80;99.90;;;;;;5071930;28;20610;-58
2023/07/10 02:14:04;;;;;;;34.35;24.80;;;20.70;99.90;;;;;;5064265;28;20063;-57
2023/07/10 02:16:30;;;;;;;30.63;23.17;;;20.80;99.90;;;;;;5067458;28;20028;-58
2023/07/10 02:18:55;;;;;;;31.83;24.17;;;20.70;99.90;;;;;;5067366;28;20470;-58
2023/07/10 02:21:21;;;;;;;29.23;24.30;;;20.60;99.90;;;;;;5072252;28;20462;-58
2023/07/10 02:23:47;;;;;;;27.80;22.77;;;20.70;99.90;;;;;;5069056;28;20408;-58
2023/07/10 02:26:14;;;;;;;32.25;24.63;;;20.70;99.90;;;;;;5076713;28;20029;-58
2023/07/10 02:28:40;;;;;;;29.70;23.40;;;20.70;99.90;;;;;;5075903;28;20457;-58
2023/07/10 02:31:06;;;;;;;32.85;24.65;;;20.80;99.90;;;;;;5071852;28;20036;-59
2023/07/10 02:33:33;;;;;;;30.45;24.00;;;20.90;99.90;;;;;;5069028;28;20689;-58
2023/07/10 02:35:59;;;;;;;33.60;24.58;;;20.80;99.90;;;;;;5057313;28;20037;-58
2023/07/10 02:38:24;;;;;;;31.90;23.65;;;21.00;99.90;;;;;;5069698;28;20538;-58
2023/07/10 02:40:50;;;;;;;35.53;24.67;;;21.10;99.90;;;;;;5082943;28;20036;-58
2023/07/10 02:43:15;;;;;;;33.60;24.90;;;21.00;99.90;;;;;;5074566;28;20093;-59
2023/07/10 02:45:41;;;;;;;40.25;26.52;;;21.00;99.90;;;;;;5075276;28;20032;-58
2023/07/10 02:48:07;;;;;;;34.95;27.10;;;21.10;99.90;;;;;;5067339;28;20039;-58
2023/07/10 02:50:32;;;;;;;36.17;27.15;;;21.00;99.90;;;;;;5078411;28;20626;-58
2023/07/10 02:52:58;;;;;;;38.88;29.35;;;21.00;99.90;;;;;;5077947;28;20033;-58
2023/07/10 02:55:24;;;;;;;48.30;33.08;;;21.00;99.90;;;;;;5068493;28;20580;-58
2023/07/10 02:57:49;;;;;;;42.45;34.10;;;21.00;99.90;;;;;;5069498;28;20032;-58
2023/07/10 03:00:15;;;;;;;43.78;35.30;;;21.10;99.90;;;;;;5074495;27;20082;-57
2023/07/10 03:02:41;;;;;;;44.45;36.90;;;21.10;99.90;;;;;;5066361;28;20055;-58
2023/07/10 03:05:08;;;;;;;0.00;0.00;;;21.10;99.90;;;;;;5071988;28;20036;-57
2023/07/10 03:07:34;;;;;;;61.97;45.03;;;21.00;99.90;;;;;;5076458;28;20085;-58
2023/07/10 03:09:59;;;;;;;85.50;52.92;;;20.90;99.90;;;;;;5075944;28;20040;-58
2023/07/10 03:12:26;;;;;;;56.33;41.10;;;20.50;99.90;;;;;;5067839;28;20382;-58
2023/07/10 03:14:51;;;;;;;13.15;10.25;;;20.50;99.90;;;;;;5075347;28;20510;-58
2023/07/10 03:17:17;;;;;;;0.00;0.00;;;20.60;99.90;;;;;;5076033;28;20032;-58
2023/07/10 03:19:44;;;;;;;0.00;0.00;;;20.40;99.90;;;;;;5078859;28;20503;-58
2023/07/10 03:22:10;;;;;;;0.00;0.00;;;20.50;99.90;;;;;;5065214;28;20035;-59
2023/07/10 03:24:35;;;;;;;0.00;0.00;;;20.50;99.90;;;;;;5081457;28;20650;-58
2023/07/10 03:27:01;;;;;;;36.60;32.67;;;20.60;99.90;;;;;;5072222;28;20028;-58
2023/07/10 03:29:27;;;;;;;13.48;11.57;;;20.60;99.90;;;;;;5069104;28;20107;-58
2023/07/10 03:31:52;;;;;;;44.33;36.03;;;20.50;99.90;;;;;;5075191;28;20464;-58
2023/07/10 03:34:18;;;;;;;50.25;35.92;;;20.70;99.90;;;;;;5065263;28;20405;-58
2023/07/10 03:36:44;;;;;;;51.17;36.08;;;20.60;99.90;;;;;;5065739;28;20025;-58
2023/07/10 03:39:12;;;;;;;43.17;35.25;;;20.60;99.90;;;;;;5061800;28;20045;-57
2023/07/10 03:41:37;;;;;;;42.28;34.00;;;20.10;99.90;;;;;;5069736;28;20031;-58
2023/07/10 03:44:03;;;;;;;46.95;35.97;;;20.30;99.90;;;;;;5071228;28;20050;-58
2023/07/10 03:46:29;;;;;;;49.45;35.53;;;20.30;99.90;;;;;;5065995;28;20124;-58
2023/07/10 03:48:55;;;;;;;51.20;33.72;;;20.10;99.90;;;;;;5066731;28;20127;-58
2023/07/10 03:51:21;;;;;;;40.85;33.00;;;20.10;99.90;;;;;;5074212;28;20024;-58
2023/07/10 03:53:47;;;;;;;40.17;33.42;;;20.20;99.90;;;;;;5065286;28;20086;-58
2023/07/10 03:56:12;;;;;;;43.22;34.03;;;20.20;99.90;;;;;;5064016;28;20082;-58
2023/07/10 03:58:41;;;;;;;48.80;34.13;;;20.20;99.90;;;;;;5066095;28;20028;-58
2023/07/10 04:01:07;;;;;;;44.40;33.08;;;20.10;99.90;;;;;;5068594;28;20048;-58
2023/07/10 04:03:33;;;;;;;41.78;32.70;;;20.20;99.90;;;;;;5064528;28;20042;-58
2023/07/10 04:06:00;;;;;;;43.97;34.67;;;20.10;99.90;;;;;;5071710;28;20105;-58
2023/07/10 04:08:31;;;;;;;45.42;33.35;;;20.20;99.90;;;;;;5074794;28;20594;-58
2023/07/10 04:11:00;;;;;;;42.42;31.77;;;20.20;99.90;;;;;;5064140;28;20033;-58
2023/07/10 04:13:26;;;;;;;46.10;34.67;;;20.30;99.90;;;;;;5067660;28;20032;-58
2023/07/10 04:16:00;;;;;;;43.70;33.35;;;20.40;99.90;;;;;;5069289;28;20036;-59
2023/07/10 04:18:31;;;;;;;45.97;33.47;;;20.50;99.90;;;;;;5072558;28;20434;-59
2023/07/10 04:20:59;;;;;;;46.97;32.83;;;20.50;99.90;;;;;;5066205;28;20135;-58
2023/07/10 04:23:24;;;;;;;48.22;32.30;;;20.40;99.90;;;;;;5066581;28;20056;-57
2023/07/10 04:25:50;;;;;;;42.30;32.00;;;20.50;99.90;;;;;;5073472;28;20063;-57
2023/07/10 04:28:16;;;;;;;45.08;33.47;;;20.30;99.90;;;;;;5065225;28;20041;-60
2023/07/10 04:30:41;;;;;;;44.55;32.40;;;20.40;99.90;;;;;;5058236;28;20060;-58
2023/07/10 04:33:09;;;;;;;46.85;33.28;;;20.60;99.90;;;;;;5065577;28;20036;-57
2023/07/10 04:35:35;;;;;;;42.13;32.70;;;20.40;99.90;;;;;;5070310;28;20048;-58
2023/07/10 04:38:00;;;;;;;44.67;32.30;;;20.30;99.90;;;;;;5065792;28;20168;-58
2023/07/10 04:40:26;;;;;;;39.25;30.80;;;20.40;99.90;;;;;;5067368;28;20051;-57
2023/07/10 04:42:53;;;;;;;40.88;31.35;;;20.30;99.90;;;;;;5066670;28;20036;-58
2023/07/10 04:45:18;;;;;;;44.72;32.25;;;20.30;99.90;;;;;;5064411;28;20043;-58
2023/07/10 04:47:44;;;;;;;47.85;32.38;;;20.30;99.90;;;;;;5065603;28;20036;-58
2023/07/10 04:50:10;;;;;;;39.40;31.30;;;20.30;99.90;;;;;;5075605;28;20055;-57
2023/07/10 04:52:35;;;;;;;40.60;31.50;;;20.40;99.90;;;;;;5069029;28;20048;-62
2023/07/10 04:55:02;;;;;;;46.40;32.55;;;20.40;99.90;;;;;;5065411;28;20059;-62
2023/07/10 04:57:28;;;;;;;43.08;33.15;;;20.60;99.90;;;;;;5065095;28;20198;-62
2023/07/10 04:59:54;;;;;;;45.38;31.65;;;20.60;99.90;;;;;;5064523;28;20036;-62
2023/07/10 05:02:19;;;;;;;43.25;31.02;;;20.50;99.90;;;;;;5062384;28;20127;-62
2023/07/10 05:04:45;;;;;;;37.63;30.98;;;20.60;99.90;;;;;;5057828;28;20039;-63
2023/07/10 05:07:11;;;;;;;46.40;30.40;;;20.60;99.90;;;;;;5065765;28;20035;-62
2023/07/10 05:09:37;;;;;;;37.45;29.20;;;20.60;99.90;;;;;;5063792;28;20039;-62
2023/07/10 05:12:03;;;;;;;38.60;29.58;;;20.50;99.90;;;;;;5066384;28;20041;-62
2023/07/10 05:14:29;;;;;;;39.75;27.73;;;20.50;99.90;;;;;;5065747;28;20036;-62
2023/07/10 05:16:54;;;;;;;38.60;27.95;;;20.50;99.90;;;;;;5067035;28;20044;-62
2023/07/10 05:19:20;;;;;;;40.40;28.90;;;20.50;99.90;;;;;;5060019;28;20041;-62
2023/07/10 05:21:46;;;;;;;34.28;26.83;;;20.60;99.90;;;;;;5065346;28;20032;-63
2023/07/10 05:24:12;;;;;;;39.53;27.67;;;20.70;99.90;;;;;;5063896;28;20166;-63
2023/07/10 05:26:37;;;;;;;34.25;25.38;;;20.60;99.90;;;;;;5064490;28;20053;-62
2023/07/10 05:29:03;;;;;;;39.15;27.10;;;20.50;99.90;;;;;;5065520;28;20097;-62
2023/07/10 05:31:28;;;;;;;33.47;27.10;;;20.40;99.90;;;;;;5065185;28;20028;-62
2023/07/10 05:33:54;;;;;;;41.65;28.13;;;20.50;99.90;;;;;;5063650;28;20115;-62
2023/07/10 05:36:20;;;;;;;39.92;27.52;;;20.60;99.90;;;;;;5061700;28;20031;-62
2023/07/10 05:38:48;;;;;;;36.67;26.63;;;20.50;99.90;;;;;;5064657;28;20537;-62
2023/07/10 05:41:18;;;;;;;34.10;25.65;;;20.50;99.90;;;;;;5064091;28;20037;-62
2023/07/10 05:43:43;;;;;;;33.20;25.48;;;20.60;99.90;;;;;;5057336;28;20029;-62
2023/07/10 05:46:10;;;;;;;36.20;26.70;;;20.80;99.90;;;;;;5065861;28;20614;-62
2023/07/10 05:48:36;;;;;;;34.40;26.30;;;20.90;99.90;;;;;;5052668;28;20471;-62
2023/07/10 05:51:02;;;;;;;34.08;25.67;;;20.90;99.90;;;;;;5064809;28;20056;-62
2023/07/10 05:53:27;;;;;;;33.88;26.00;;;21.00;99.90;;;;;;5061153;28;20448;-62
2023/07/10 05:55:55;;;;;;;31.40;24.85;;;20.80;99.90;;;;;;5064388;28;20574;-61
2023/07/10 05:58:23;;;;;;;33.92;25.58;;;20.70;99.90;;;;;;5067526;28;20082;-62
2023/07/10 06:00:52;;;;;;;34.22;26.08;;;20.80;99.90;;;;;;5067671;28;20036;-61
2023/07/10 06:03:18;;;;;;;39.60;26.52;;;20.80;99.90;;;;;;5071272;28;20094;-61
2023/07/10 06:05:55;;;;;;;34.20;24.20;;;20.70;99.90;;;;;;5069640;28;20029;-62
2023/07/10 06:08:22;;;;;;;31.95;25.15;;;20.80;99.90;;;;;;5062740;28;20101;-61
2023/07/10 06:10:48;;;;;;;35.70;24.58;;;20.90;99.90;;;;;;5065402;28;20071;-62
2023/07/10 06:13:14;;;;;;;27.88;21.52;;;20.80;99.90;;;;;;5050731;28;20324;-62
2023/07/10 06:15:45;;;;;;;23.23;19.13;;;20.80;99.90;;;;;;5073415;28;20040;-62
2023/07/10 06:18:11;;;;;;;26.10;19.60;;;20.80;99.90;;;;;;5069596;28;20072;-61
2023/07/10 06:20:36;;;;;;;25.60;18.38;;;20.80;99.90;;;;;;5068080;28;20377;-61
2023/07/10 06:23:02;;;;;;;21.60;13.52;;;20.80;99.90;;;;;;5071743;28;20370;-62
2023/07/10 06:25:27;;;;;;;15.95;11.50;;;20.80;99.90;;;;;;5068635;28;20032;-62
2023/07/10 06:27:53;;;;;;;17.50;10.18;;;20.90;99.90;;;;;;5064611;28;20831;-64
2023/07/10 06:30:19;;;;;;;12.73;8.95;;;20.80;99.90;;;;;;5067495;28;20078;-61
2023/07/10 06:32:44;;;;;;;13.05;8.00;;;20.80;99.90;;;;;;5075127;28;20056;-61
2023/07/10 06:35:13;;;;;;;13.93;7.90;;;20.70;99.90;;;;;;5069210;28;20503;-61
2023/07/10 06:37:40;;;;;;;13.00;8.23;;;20.70;99.90;;;;;;5068912;28;20036;-60
2023/07/10 06:40:07;;;;;;;11.57;7.65;;;20.80;99.90;;;;;;5063796;28;20028;-61
2023/07/10 06:42:33;;;;;;;11.13;6.63;;;20.70;99.90;;;;;;5067703;28;20056;-60
2023/07/10 06:44:59;;;;;;;12.50;7.75;;;20.80;99.90;;;;;;5059294;28;20059;-61
2023/07/10 06:47:24;;;;;;;10.85;7.05;;;20.80;99.90;;;;;;5068180;28;20032;-61
2023/07/10 06:49:50;;;;;;;10.23;6.72;;;21.00;99.90;;;;;;5068636;28;20044;-61
2023/07/10 06:52:15;;;;;;;12.48;6.40;;;21.00;99.90;;;;;;5067091;28;20127;-61
2023/07/10 06:54:41;;;;;;;12.40;7.15;;;21.00;99.90;;;;;;5067817;28;20032;-61
2023/07/10 06:57:06;;;;;;;15.63;7.38;;;20.90;99.90;;;;;;5068592;28;20453;-60
2023/07/10 06:59:32;;;;;;;13.10;7.15;;;21.00;99.90;;;;;;5067427;28;20112;-61
2023/07/10 07:01:57;;;;;;;11.50;6.40;;;21.10;99.90;;;;;;5063486;28;20067;-61
2023/07/10 07:04:23;;;;;;;9.73;4.45;;;21.20;99.90;;;;;;5066436;28;20115;-61
2023/07/10 07:06:50;;;;;;;8.52;4.05;;;21.10;99.90;;;;;;5067392;28;20115;-60
2023/07/10 07:09:15;;;;;;;8.82;2.97;;;21.20;99.90;;;;;;5066982;28;20025;-60
2023/07/10 07:11:41;;;;;;;6.72;3.35;;;21.30;99.90;;;;;;5067383;28;20040;-60
2023/07/10 07:14:07;;;;;;;6.50;3.08;;;21.40;99.90;;;;;;5067262;28;20097;-61
2023/07/10 07:16:33;;;;;;;13.48;3.63;;;21.50;99.90;;;;;;5067311;28;20036;-61
2023/07/10 07:18:58;;;;;;;8.90;3.20;;;21.80;99.90;;;;;;5062959;28;20480;-61
2023/07/10 07:21:24;;;;;;;6.72;3.28;;;21.90;99.90;;;;;;5066694;28;20457;-62
2023/07/10 07:23:49;;;;;;;7.15;2.90;;;21.10;99.90;;;;;;5067505;28;20032;-61
2023/07/10 07:26:15;;;;;;;6.38;2.88;;;21.90;99.90;;;;;;5065572;28;20255;-61
2023/07/10 07:28:41;;;;;;;3.78;2.30;;;21.70;99.90;;;;;;5066250;28;20025;-61
2023/07/10 07:31:06;;;;;;;6.28;2.95;;;21.70;99.90;;;;;;5064875;28;20021;-61
2023/07/10 07:33:32;;;;;;;6.97;2.70;;;21.80;99.90;;;;;;5067119;28;20025;-61
2023/07/10 07:36:02;;;;;;;5.25;2.85;;;21.80;99.90;;;;;;5061695;28;20449;-60
2023/07/10 07:38:27;;;;;;;6.00;2.42;;;21.80;99.90;;;;;;5066140;27;20033;-60
2023/07/10 07:40:55;;;;;;;8.98;2.75;;;22.00;99.90;;;;;;5066859;28;20396;-61
2023/07/10 07:43:21;;;;;;;6.80;2.63;;;22.20;99.90;;;;;;5067005;28;20032;-61
2023/07/10 07:45:51;;;;;;;9.13;2.35;;;22.20;99.90;;;;;;5068526;28;20048;-60
2023/07/10 07:48:17;;;;;;;4.13;1.58;;;22.20;99.90;;;;;;5065384;28;20059;-61
2023/07/10 07:50:43;;;;;;;5.50;1.60;;;22.20;99.90;;;;;;5066906;28;20067;-61
2023/07/10 07:53:08;;;;;;;10.63;1.80;;;22.20;99.90;;;;;;5056347;28;20036;-62
2023/07/10 07:55:34;;;;;;;5.13;1.98;;;22.10;99.90;;;;;;5064400;28;20039;-61
2023/07/10 07:57:59;;;;;;;39.53;25.55;;;22.00;99.90;;;;;;5068404;28;20028;-62
2023/07/10 08:00:25;;;;;;;6.30;2.08;;;22.10;99.90;;;;;;5066022;28;20121;-62
2023/07/10 08:02:50;;;;;;;5.45;1.85;;;21.80;99.90;;;;;;5067784;28;20366;-62
2023/07/10 08:05:16;;;;;;;7.97;2.55;;;22.00;99.90;;;;;;5065790;28;20393;-62
2023/07/10 08:07:41;;;;;;;6.03;2.00;;;22.20;99.90;;;;;;5066629;28;20109;-62
2023/07/10 08:10:07;;;;;;;5.65;1.90;;;22.40;99.90;;;;;;5067834;28;20158;-62
2023/07/10 08:12:33;;;;;;;5.20;2.05;;;22.40;99.90;;;;;;5078686;28;20024;-61
2023/07/10 08:14:58;;;;;;;6.40;2.10;;;22.40;99.90;;;;;;5069390;28;20033;-62
2023/07/10 08:17:24;;;;;;;7.20;2.30;;;22.40;99.90;;;;;;5072520;28;20035;-61
2023/07/10 08:19:49;;;;;;;6.55;2.20;;;22.50;99.90;;;;;;5073879;28;20120;-62
2023/07/10 08:22:15;;;;;;;6.53;2.50;;;22.50;99.90;;;;;;5065666;28;20028;-62
2023/07/10 08:24:41;;;;;;;6.05;2.30;;;22.60;99.90;;;;;;5065286;28;20037;-62
2023/07/10 08:27:06;;;;;;;6.68;2.00;;;22.50;99.90;;;;;;5062676;28;20047;-62
2023/07/10 08:29:35;;;;;;;6.47;2.20;;;22.70;99.90;;;;;;5069479;28;20037;-62
2023/07/10 08:32:01;;;;;;;8.77;2.75;;;22.90;99.90;;;;;;5063675;28;20535;-63
2023/07/10 08:34:29;;;;;;;7.60;4.13;;;22.80;99.90;;;;;;5060345;28;20085;-61
2023/07/10 08:36:55;;;;;;;5.00;1.88;;;22.70;99.90;;;;;;5068160;28;20028;-63
2023/07/10 08:39:22;;;;;;;7.93;1.90;;;22.70;99.90;;;;;;5065593;28;22331;-61
2023/07/10 08:41:58;;;;;;;4.70;1.77;;;22.80;99.90;;;;;;5065602;28;20043;-61
2023/07/10 08:44:33;;;;;;;7.25;1.98;;;22.90;99.90;;;;;;5061027;28;20054;-61
2023/07/10 08:47:01;;;;;;;3.75;1.70;;;23.00;99.90;;;;;;5066447;28;20086;-61
2023/07/10 08:49:41;;;;;;;6.00;2.00;;;22.90;99.90;;;;;;5064682;28;20499;-61
2023/07/10 08:52:11;;;;;;;6.53;2.03;;;22.90;99.90;;;;;;5065775;28;20108;-61
2023/07/10 08:54:37;;;;;;;4.60;1.90;;;23.00;99.90;;;;;;5063823;28;20158;-61
2023/07/10 08:57:26;;;;;;;5.90;1.95;;;23.00;99.90;;;;;;5064287;28;20521;-61
2023/07/10 09:00:02;;;;;;;6.07;2.10;;;23.20;99.90;;;;;;5063997;28;20120;-61
2023/07/10 09:02:43;;;;;;;5.63;1.83;;;23.30;99.90;;;;;;5064078;28;20431;-61
2023/07/10 09:05:32;;;;;;;4.15;1.98;;;23.30;99.90;;;;;;5062716;28;20082;-61
2023/07/10 09:08:05;;;;;;;8.45;2.20;;;23.50;99.90;;;;;;5064508;28;20044;-61
2023/07/10 09:10:44;;;;;;;6.13;2.15;;;23.50;99.90;;;;;;5062140;28;20040;-61
2023/07/10 09:13:39;;;;;;;4.60;1.98;;;23.30;99.90;;;;;;5062951;28;20032;-61
2023/07/10 09:16:17;;;;;;;6.47;2.28;;;23.40;99.90;;;;;;5057698;28;20400;-61
2023/07/10 09:18:52;;;;;;;8.48;2.22;;;23.60;99.90;;;;;;5061487;28;20059;-61
2023/07/10 09:21:21;;;;;;;6.10;2.10;;;23.70;99.90;;;;;;5062809;28;20032;-61
2023/07/10 09:23:48;;;;;;;4.38;2.00;;;23.90;99.90;;;;;;5059844;28;20070;-62
2023/07/10 09:26:18;;;;;;;7.18;1.83;;;24.00;99.90;;;;;;5059296;28;20468;-61
2023/07/10 09:28:57;;;;;;;4.43;1.80;;;24.20;99.90;;;;;;5064076;28;20025;-61
2023/07/10 09:31:25;;;;;;;4.43;1.60;;;24.00;99.90;;;;;;5056074;28;20501;-61
2023/07/10 09:33:58;;;;;;;5.43;2.00;;;24.00;99.90;;;;;;5060343;28;20052;-61
2023/07/10 09:36:24;;;;;;;6.47;1.83;;;24.20;99.90;;;;;;5059776;28;20037;-61
2023/07/10 09:38:51;;;;;;;5.22;2.10;;;24.30;99.90;;;;;;5067622;28;20041;-62
2023/07/10 09:41:26;;;;;;;5.47;2.00;;;24.30;99.90;;;;;;5065992;28;20028;-61
2023/07/10 09:43:57;;;;;;;5.38;1.80;;;24.40;99.90;;;;;;5066642;28;20115;-62
2023/07/10 09:46:36;;;;;;;5.20;1.90;;;24.50;99.90;;;;;;5067380;28;20052;-61
2023/07/10 09:49:10;;;;;;;5.63;1.70;;;24.50;99.90;;;;;;5066756;28;20077;-61
2023/07/10 09:51:37;;;;;;;5.82;1.88;;;24.40;99.90;;;;;;5066307;28;20036;-61
2023/07/10 09:54:06;;;;;;;4.63;1.40;;;24.50;99.90;;;;;;5068143;28;20048;-61
2023/07/10 09:56:37;;;;;;;3.67;1.83;;;24.20;99.90;;;;;;5067570;28;20039;-61
2023/07/10 09:59:21;;;;;;;9.70;2.05;;;24.20;99.90;;;;;;5067637;28;20060;-61
2023/07/10 10:01:50;;;;;;;6.57;2.13;;;24.30;99.90;;;;;;5059075;28;20296;-61
2023/07/10 10:04:27;;;;;;;6.20;1.73;;;24.40;99.90;;;;;;5065114;28;20965;-61
2023/07/10 10:07:02;;;;;;;4.53;1.65;;;24.40;99.90;;;;;;5063805;28;20591;-61
2023/07/10 10:09:29;;;;;;;7.07;2.03;;;24.20;99.90;;;;;;5064739;28;20106;-61
2023/07/10 10:12:03;;;;;;;6.18;1.92;;;24.10;99.90;;;;;;5068537;28;20413;-61
2023/07/10 10:14:48;;;;;;;7.60;1.92;;;24.00;99.90;;;;;;5066577;28;20033;-61
2023/07/10 10:17:20;;;;;;;4.28;1.65;;;24.20;99.90;;;;;;5067519;28;20028;-61
2023/07/10 10:19:51;;;;;;;6.78;2.03;;;24.30;99.90;;;;;;5067297;28;20231;-61
2023/07/10 10:22:17;;;;;;;6.50;1.77;;;24.30;99.90;;;;;;5065896;28;20028;-61
2023/07/10 10:24:44;;;;;;;5.88;1.70;;;24.60;99.90;;;;;;5066856;28;20027;-62
2023/07/10 10:27:54;;;;;;;4.30;1.77;;;24.80;99.90;;;;;;5065335;28;20029;-61
2023/07/10 10:30:26;;;;;;;4.43;1.65;;;24.90;99.90;;;;;;5066762;28;20691;-61
2023/07/10 10:33:05;;;;;;;5.05;1.58;;;25.10;99.90;;;;;;5065275;28;20377;-61
2023/07/10 10:35:46;;;;;;;4.97;1.73;;;24.80;99.90;;;;;;5068040;28;20580;-61
2023/07/10 10:38:18;;;;;;;6.05;1.70;;;24.70;99.90;;;;;;5065402;28;20028;-61
2023/07/10 10:40:49;;;;;;;3.17;1.25;;;24.80;99.90;;;;;;5065789;28;20044;-61
2023/07/10 10:43:34;;;;;;;4.22;1.42;;;24.90;99.90;;;;;;5063901;28;20044;-61
2023/07/10 10:46:36;;;;;;;6.38;2.40;;;25.10;99.90;;;;;;5063596;28;20505;-61
2023/07/10 10:49:13;;;;;;;3.97;1.60;;;25.20;99.90;;;;;;5055439;28;20484;-63
2023/07/10 10:51:51;;;;;;;7.13;2.08;;;25.20;99.90;;;;;;5061641;28;20033;-61
2023/07/10 10:54:30;;;;;;;3.63;1.67;;;25.20;99.90;;;;;;5066444;28;20021;-62
2023/07/10 10:57:08;;;;;;;6.00;1.80;;;25.20;99.90;;;;;;5067512;28;20044;-61
2023/07/10 11:00:07;;;;;;;4.30;1.70;;;25.10;99.90;;;;;;5063643;28;20039;-61
2023/07/10 11:02:39;;;;;;;8.73;1.80;;;25.00;99.90;;;;;;5064295;28;20400;-61
2023/07/10 11:05:17;;;;;;;6.40;1.70;;;24.90;99.90;;;;;;5062870;28;20017;-61
2023/07/10 11:07:46;;;;;;;4.68;1.70;;;25.00;99.90;;;;;;5064422;28;20033;-61
2023/07/10 11:10:38;;;;;;;4.70;1.75;;;25.00;99.90;;;;;;5065600;28;20032;-61
2023/07/10 11:13:05;;;;;;;7.38;2.03;;;25.20;99.90;;;;;;5062394;28;20054;-61
2023/07/10 11:15:33;;;;;;;6.90;1.98;;;25.20;99.90;;;;;;5065488;28;20032;-61
2023/07/10 11:17:59;;;;;;;4.78;2.10;;;25.10;99.90;;;;;;5059714;28;20036;-61
2023/07/10 11:20:26;;;;;;;5.10;1.77;;;25.20;99.90;;;;;;5061685;28;20120;-61
2023/07/10 11:23:04;;;;;;;4.93;1.70;;;25.30;99.90;;;;;;5065832;28;20588;-61
2023/07/10 11:25:39;;;;;;;5.65;1.52;;;25.40;99.90;;;;;;5064823;28;20036;-62
2023/07/10 11:28:19;;;;;;;3.35;1.40;;;25.50;99.90;;;;;;5067552;28;20047;-62
2023/07/10 11:30:44;;;;;;;5.18;2.00;;;25.50;99.90;;;;;;5063753;28;20491;-62
2023/07/10 11:33:20;;;;;;;6.63;1.80;;;25.50;99.90;;;;;;5062613;28;20047;-62
2023/07/10 11:36:18;;;;;;;9.48;2.00;;;25.30;99.90;;;;;;5059210;28;20048;-63
2023/07/10 11:38:55;;;;;;;4.93;1.80;;;25.40;99.90;;;;;;5059150;28;20462;-61
2023/07/10 11:41:30;;;;;;;6.28;2.03;;;25.50;99.90;;;;;;5065685;28;20066;-61
2023/07/10 11:44:14;;;;;;;5.47;1.77;;;25.50;99.90;;;;;;5065860;28;20454;-61
2023/07/10 11:47:00;;;;;;;;;;;25.60;99.90;;;;;;5068530;28;20438;-62
2023/07/10 11:49:35;;;;;;;5.75;2.00;;;25.30;99.90;;;;;;5063643;28;19909;-61
2023/07/10 11:52:13;;;;;;;5.47;1.85;;;25.20;99.90;;;;;;5062560;28;20035;-62
2023/07/10 11:54:45;;;;;;;7.07;1.80;;;25.00;99.90;;;;;;5062451;28;20036;-61
2023/07/10 11:57:15;;;;;;;9.63;2.10;;;24.90;99.90;;;;;;5065053;28;20217;-61
2023/07/10 11:59:58;;;;;;;6.28;2.03;;;25.00;99.90;;;;;;5056302;28;20111;-61
2023/07/10 12:02:44;;;;;;;6.32;1.77;;;25.20;99.90;;;;;;5064282;28;20085;-62
2023/07/10 12:05:26;;;;;;;7.60;1.88;;;25.40;99.90;;;;;;5063866;28;20055;-61
2023/07/10 12:08:06;;;;;;;5.60;1.65;;;25.40;99.90;;;;;;5061683;28;20025;-61
2023/07/10 12:10:37;;;;;;;4.90;1.75;;;25.20;99.90;;;;;;5063910;28;20028;-61
2023/07/10 12:13:13;;;;;;;3.55;1.67;;;25.10;99.90;;;;;;5057064;28;20048;-61
2023/07/10 12:15:40;;;;;;;5.40;1.80;;;25.20;99.90;;;;;;5068709;28;20444;-61
2023/07/10 12:18:07;;;;;;;5.30;2.03;;;25.40;99.90;;;;;;5065376;28;20041;-61
2023/07/10 12:20:34;;;;;;;4.00;1.70;;;25.70;99.90;;;;;;5066587;28;20124;-61
2023/07/10 12:23:06;;;;;;;6.72;2.25;;;25.90;99.90;;;;;;5064284;28;20119;-61
2023/07/10 12:25:32;;;;;;;6.30;2.50;;;25.50;99.90;;;;;;5050073;28;20095;-61
2023/07/10 12:28:13;;;;;;;4.90;1.70;;;26.00;99.90;;;;;;5053036;28;20048;-61
2023/07/10 12:30:39;;;;;;;7.50;2.00;;;25.70;99.90;;;;;;5065379;28;20043;-61
2023/07/10 12:33:37;;;;;;;6.20;1.90;;;25.60;99.90;;;;;;5061005;28;20086;-61
2023/07/10 12:36:10;;;;;;;5.28;1.88;;;25.60;99.90;;;;;;5059501;28;20037;-61
2023/07/10 12:38:36;;;;;;;6.85;2.10;;;25.40;99.90;;;;;;5063572;28;20041;-61
2023/07/10 12:41:03;;;;;;;5.07;1.63;;;25.40;99.90;;;;;;5060973;28;20258;-61
2023/07/10 12:43:29;;;;;;;5.05;1.80;;;25.50;99.90;;;;;;5057636;28;20166;-61
2023/07/10 12:45:59;;;;;;;6.32;1.70;;;25.70;99.90;;;;;;5058986;28;20430;-61
2023/07/10 12:48:30;;;;;;;5.70;1.95;;;25.90;99.90;;;;;;5062714;28;20050;-61